createdAt,value
2017-11-16T00:00:22.083Z,1016.24
2017-11-16T00:01:22.066Z,1016.26
2017-11-16T00:02:22.046Z,1016.22
2017-11-16T00:03:22.030Z,1016.22
2017-11-16T00:04:22.016Z,1016.24
2017-11-16T00:05:21.997Z,1016.24
2017-11-16T00:06:21.981Z,1016.25
2017-11-16T00:07:21.963Z,1016.22
2017-11-16T00:08:21.949Z,1016.23
2017-11-16T00:09:21.930Z,1016.2
2017-11-16T00:10:21.914Z,1016.21
2017-11-16T00:11:21.895Z,1016.22
2017-11-16T00:12:21.881Z,1016.2
2017-11-16T00:13:21.862Z,1016.17
2017-11-16T00:14:21.845Z,1016.18
2017-11-16T00:15:21.831Z,1016.14
2017-11-16T00:16:21.810Z,1016.13
2017-11-16T00:17:21.793Z,1016.13
2017-11-16T00:18:21.776Z,1016.12
2017-11-16T00:19:21.761Z,1016.13
2017-11-16T00:20:21.742Z,1016.09
2017-11-16T00:21:21.729Z,1016.1
2017-11-16T00:22:21.709Z,1016.09
2017-11-16T00:23:21.690Z,1016.06
2017-11-16T00:24:21.674Z,1016.08
2017-11-16T00:25:21.666Z,1016.07
2017-11-16T00:26:21.640Z,1016.09
2017-11-16T00:27:21.626Z,1016.12
2017-11-16T00:28:21.607Z,1016.1
2017-11-16T00:29:21.590Z,1016.11
2017-11-16T00:30:21.574Z,1016.08
2017-11-16T00:31:21.554Z,1016.09
2017-11-16T00:32:21.538Z,1016.07
2017-11-16T00:33:21.523Z,1016.08
2017-11-16T00:34:21.503Z,1016.04
2017-11-16T00:35:21.485Z,1016.04
2017-11-16T00:36:21.471Z,1016.04
2017-11-16T00:37:21.461Z,1016.07
2017-11-16T00:38:21.436Z,1016.05
2017-11-16T00:39:21.419Z,1016.07
2017-11-16T00:40:21.402Z,1016.04
2017-11-16T00:41:21.387Z,1016.11
2017-11-16T00:42:21.369Z,1016.06
2017-11-16T00:43:21.350Z,1016.03
2017-11-16T00:44:21.334Z,1016.07
2017-11-16T00:45:21.317Z,1016.07
2017-11-16T00:46:21.299Z,1016.1
2017-11-16T00:47:21.283Z,1016.07
2017-11-16T00:48:21.265Z,1016.07
2017-11-16T00:49:21.247Z,1016.06
2017-11-16T00:50:21.232Z,1016.03
2017-11-16T00:51:21.213Z,1016.02
2017-11-16T00:52:21.203Z,1015.97
2017-11-16T00:53:21.178Z,1015.99
2017-11-16T00:54:21.164Z,1016.01
2017-11-16T00:55:21.146Z,1015.95
2017-11-16T00:56:21.128Z,1015.99
2017-11-16T00:57:21.113Z,1015.94
2017-11-16T00:58:21.093Z,1015.99
2017-11-16T00:59:21.077Z,1015.93
2017-11-16T01:00:21.060Z,1015.9
2017-11-16T01:01:21.041Z,1015.9
2017-11-16T01:02:21.025Z,1015.88
2017-11-16T01:03:21.016Z,1015.85
2017-11-16T01:04:20.990Z,1015.87
2017-11-16T01:05:20.981Z,1015.84
2017-11-16T01:06:20.957Z,1015.87
2017-11-16T01:07:20.941Z,1015.83
2017-11-16T01:08:20.922Z,1015.88
2017-11-16T01:09:20.906Z,1015.84
2017-11-16T01:10:20.890Z,1015.8
2017-11-16T01:11:20.871Z,1015.8
2017-11-16T01:12:20.854Z,1015.75
2017-11-16T01:13:20.840Z,1015.77
2017-11-16T01:14:20.819Z,1015.76
2017-11-16T01:15:20.810Z,1015.77
2017-11-16T01:16:20.785Z,1015.81
2017-11-16T01:17:20.768Z,1015.78
2017-11-16T01:18:20.752Z,1015.74
2017-11-16T01:19:20.735Z,1015.73
2017-11-16T01:20:20.716Z,1015.74
2017-11-16T01:21:20.699Z,1015.76
2017-11-16T01:22:20.684Z,1015.75
2017-11-16T01:23:20.664Z,1015.78
2017-11-16T01:24:20.647Z,1015.73
2017-11-16T01:25:20.631Z,1015.75
2017-11-16T01:26:20.614Z,1015.78
2017-11-16T01:27:20.598Z,1015.81
2017-11-16T01:28:20.580Z,1015.83
2017-11-16T01:29:20.562Z,1015.89
2017-11-16T01:30:20.549Z,1015.88
2017-11-16T01:31:20.527Z,1015.89
2017-11-16T01:32:20.510Z,1015.92
2017-11-16T01:33:20.491Z,1015.91
2017-11-16T01:34:20.474Z,1015.89
2017-11-16T01:35:20.457Z,1015.85
2017-11-16T01:36:20.440Z,1015.84
2017-11-16T01:37:20.420Z,1015.84
2017-11-16T01:38:20.402Z,1015.85
2017-11-16T01:39:20.388Z,1015.83
2017-11-16T01:40:20.373Z,1015.84
2017-11-16T01:41:20.352Z,1015.81
2017-11-16T01:42:20.336Z,1015.82
2017-11-16T01:43:20.317Z,1015.84
2017-11-16T01:44:20.299Z,1015.86
2017-11-16T01:45:20.281Z,1015.82
2017-11-16T01:46:20.275Z,1015.86
2017-11-16T01:47:20.248Z,1015.82
2017-11-16T01:48:20.233Z,1015.81
2017-11-16T01:49:20.214Z,1015.83
2017-11-16T01:50:20.202Z,1015.76
2017-11-16T01:51:20.178Z,1015.78
2017-11-16T01:52:20.160Z,1015.76
2017-11-16T01:53:20.144Z,1015.73
2017-11-16T01:54:20.126Z,1015.79
2017-11-16T01:55:20.109Z,1015.69
2017-11-16T01:56:20.091Z,1015.71
2017-11-16T01:57:20.278Z,1015.67
2017-11-16T01:58:20.055Z,1015.68
2017-11-16T01:59:20.039Z,1015.63
2017-11-16T02:00:20.024Z,1015.66
2017-11-16T02:01:20.010Z,1015.66
2017-11-16T02:02:19.986Z,1015.63
2017-11-16T02:03:19.968Z,1015.66
2017-11-16T02:04:19.952Z,1015.65
2017-11-16T02:05:19.934Z,1015.64
2017-11-16T02:06:19.916Z,1015.62
2017-11-16T02:07:19.903Z,1015.57
2017-11-16T02:08:19.882Z,1015.55
2017-11-16T02:09:19.867Z,1015.54
2017-11-16T02:10:19.848Z,1015.58
2017-11-16T02:11:19.830Z,1015.56
2017-11-16T02:12:19.812Z,1015.57
2017-11-16T02:13:19.793Z,1015.55
2017-11-16T02:14:19.780Z,1015.61
2017-11-16T02:15:19.760Z,1015.59
2017-11-16T02:16:19.744Z,1015.61
2017-11-16T02:17:19.724Z,1015.64
2017-11-16T02:18:19.707Z,1015.56
2017-11-16T02:19:19.691Z,1015.59
2017-11-16T02:20:19.673Z,1015.61
2017-11-16T02:21:19.655Z,1015.59
2017-11-16T02:22:19.639Z,1015.56
2017-11-16T02:23:19.623Z,1015.58
2017-11-16T02:24:19.603Z,1015.56
2017-11-16T02:25:19.588Z,1015.52
2017-11-16T02:26:19.568Z,1015.54
2017-11-16T02:27:19.550Z,1015.54
2017-11-16T02:28:19.534Z,1015.54
2017-11-16T02:29:19.517Z,1015.5
2017-11-16T02:30:19.500Z,1015.52
2017-11-16T02:31:19.483Z,1015.5
2017-11-16T02:32:19.463Z,1015.51
2017-11-16T02:33:19.448Z,1015.45
2017-11-16T02:34:19.431Z,1015.49
2017-11-16T02:35:19.413Z,1015.51
2017-11-16T02:36:19.482Z,1015.47
2017-11-16T02:37:19.378Z,1015.5
2017-11-16T02:38:19.385Z,1015.51
2017-11-16T02:39:19.343Z,1015.54
2017-11-16T02:40:19.328Z,1015.51
2017-11-16T02:41:19.310Z,1015.52
2017-11-16T02:42:19.290Z,1015.53
2017-11-16T02:43:19.273Z,1015.54
2017-11-16T02:44:19.257Z,1015.51
2017-11-16T02:45:19.248Z,1015.51
2017-11-16T02:46:19.220Z,1015.49
2017-11-16T02:47:19.206Z,1015.48
2017-11-16T02:48:19.188Z,1015.49
2017-11-16T02:49:19.171Z,1015.46
2017-11-16T02:50:19.153Z,1015.49
2017-11-16T02:51:19.138Z,1015.47
2017-11-16T02:52:19.139Z,1015.47
2017-11-16T02:53:19.103Z,1015.46
2017-11-16T02:54:19.082Z,1015.47
2017-11-16T02:55:19.067Z,1015.51
2017-11-16T02:56:19.051Z,1015.47
2017-11-16T02:57:19.034Z,1015.44
2017-11-16T02:58:19.015Z,1015.49
2017-11-16T02:59:19.011Z,1015.41
2017-11-16T03:00:18.978Z,1015.48
2017-11-16T03:01:18.963Z,1015.43
2017-11-16T03:02:18.950Z,1015.45
2017-11-16T03:03:18.930Z,1015.46
2017-11-16T03:04:18.913Z,1015.48
2017-11-16T03:05:18.894Z,1015.49
2017-11-16T03:06:18.876Z,1015.47
2017-11-16T03:07:18.860Z,1015.51
2017-11-16T03:08:18.840Z,1015.46
2017-11-16T03:09:18.827Z,1015.52
2017-11-16T03:10:18.807Z,1015.49
2017-11-16T03:11:18.789Z,1015.51
2017-11-16T03:12:18.772Z,1015.5
2017-11-16T03:13:18.754Z,1015.46
2017-11-16T03:14:18.738Z,1015.43
2017-11-16T03:15:18.719Z,1015.46
2017-11-16T03:16:18.710Z,1015.45
2017-11-16T03:17:18.685Z,1015.46
2017-11-16T03:18:18.670Z,1015.45
2017-11-16T03:19:18.651Z,1015.46
2017-11-16T03:20:18.634Z,1015.47
2017-11-16T03:21:18.616Z,1015.49
2017-11-16T03:22:18.599Z,1015.45
2017-11-16T03:23:18.582Z,1015.45
2017-11-16T03:24:18.563Z,1015.48
2017-11-16T03:25:18.548Z,1015.49
2017-11-16T03:26:18.531Z,1015.53
2017-11-16T03:27:18.512Z,1015.5
2017-11-16T03:28:18.496Z,1015.51
2017-11-16T03:29:18.480Z,1015.48
2017-11-16T03:30:18.461Z,1015.51
2017-11-16T03:31:18.449Z,1015.51
2017-11-16T03:32:18.431Z,1015.49
2017-11-16T03:33:18.417Z,1015.49
2017-11-16T03:34:18.399Z,1015.51
2017-11-16T03:35:18.375Z,1015.48
2017-11-16T03:36:18.356Z,1015.49
2017-11-16T03:37:18.339Z,1015.47
2017-11-16T03:38:18.322Z,1015.46
2017-11-16T03:39:18.304Z,1015.5
2017-11-16T03:40:18.289Z,1015.46
2017-11-16T03:41:18.273Z,1015.43
2017-11-16T03:42:18.257Z,1015.44
2017-11-16T03:43:18.244Z,1015.43
2017-11-16T03:44:18.220Z,1015.44
2017-11-16T03:45:18.210Z,1015.41
2017-11-16T03:46:18.185Z,1015.44
2017-11-16T03:47:18.170Z,1015.45
2017-11-16T03:48:18.151Z,1015.49
2017-11-16T03:49:18.134Z,1015.47
2017-11-16T03:50:18.139Z,1015.46
2017-11-16T03:51:18.106Z,1015.45
2017-11-16T03:52:18.083Z,1015.46
2017-11-16T03:53:18.066Z,1015.48
2017-11-16T03:54:18.046Z,1015.42
2017-11-16T03:55:18.036Z,1015.45
2017-11-16T03:56:18.019Z,1015.48
2017-11-16T03:57:18.200Z,1015.46
2017-11-16T03:58:17.981Z,1015.45
2017-11-16T03:59:17.961Z,1015.46
2017-11-16T04:00:17.946Z,1015.42
2017-11-16T04:01:17.931Z,1015.44
2017-11-16T04:02:17.910Z,1015.47
2017-11-16T04:03:17.892Z,1015.46
2017-11-16T04:04:17.875Z,1015.48
2017-11-16T04:05:17.866Z,1015.47
2017-11-16T04:06:17.841Z,1015.46
2017-11-16T04:07:17.823Z,1015.48
2017-11-16T04:08:17.810Z,1015.49
2017-11-16T04:09:17.790Z,1015.42
2017-11-16T04:10:17.773Z,1015.42
2017-11-16T04:11:17.755Z,1015.42
2017-11-16T04:12:17.740Z,1015.44
2017-11-16T04:13:17.720Z,1015.5
2017-11-16T04:14:17.703Z,1015.44
2017-11-16T04:15:17.685Z,1015.44
2017-11-16T04:16:17.670Z,1015.41
2017-11-16T04:17:17.650Z,1015.41
2017-11-16T04:18:17.643Z,1015.44
2017-11-16T04:19:17.616Z,1015.44
2017-11-16T04:20:17.599Z,1015.41
2017-11-16T04:21:17.581Z,1015.36
2017-11-16T04:22:17.572Z,1015.36
2017-11-16T04:23:17.549Z,1015.37
2017-11-16T04:24:17.528Z,1015.31
2017-11-16T04:25:17.512Z,1015.34
2017-11-16T04:26:17.496Z,1015.33
2017-11-16T04:27:17.477Z,1015.3
2017-11-16T04:28:17.476Z,1015.29
2017-11-16T04:29:17.446Z,1015.29
2017-11-16T04:30:17.425Z,1015.28
2017-11-16T04:31:17.409Z,1015.28
2017-11-16T04:32:17.398Z,1015.27
2017-11-16T04:33:17.372Z,1015.22
2017-11-16T04:34:17.357Z,1015.2
2017-11-16T04:35:17.338Z,1015.2
2017-11-16T04:36:17.322Z,1015.19
2017-11-16T04:37:17.303Z,1015.18
2017-11-16T04:38:17.286Z,1015.2
2017-11-16T04:39:17.268Z,1015.14
2017-11-16T04:40:17.251Z,1015.18
2017-11-16T04:41:17.233Z,1015.16
2017-11-16T04:42:17.217Z,1015.22
2017-11-16T04:43:17.198Z,1015.17
2017-11-16T04:44:17.190Z,1015.16
2017-11-16T04:45:17.166Z,1015.16
2017-11-16T04:46:17.145Z,1015.16
2017-11-16T04:47:17.128Z,1015.15
2017-11-16T04:48:17.116Z,1015.13
2017-11-16T04:49:17.154Z,1015.14
2017-11-16T04:50:17.086Z,1015.18
2017-11-16T04:51:17.060Z,1015.12
2017-11-16T04:52:17.040Z,1015.16
2017-11-16T04:53:17.024Z,1015.13
2017-11-16T04:54:17.007Z,1015.13
2017-11-16T04:55:16.988Z,1015.1
2017-11-16T04:56:16.968Z,1015.11
2017-11-16T04:57:16.949Z,1015.09
2017-11-16T04:58:16.935Z,1015.1
2017-11-16T04:59:16.924Z,1015.11
2017-11-16T05:00:16.900Z,1015.06
2017-11-16T05:01:16.879Z,1015.08
2017-11-16T05:02:16.863Z,1015.07
2017-11-16T05:03:16.845Z,1015.07
2017-11-16T05:04:16.829Z,1015.08
2017-11-16T05:05:16.813Z,1015.02
2017-11-16T05:06:16.791Z,1015.04
2017-11-16T05:07:16.774Z,1014.99
2017-11-16T05:08:16.753Z,1015.02
2017-11-16T05:09:16.738Z,1014.97
2017-11-16T05:10:16.720Z,1014.91
2017-11-16T05:11:16.703Z,1014.93
2017-11-16T05:12:16.685Z,1014.9
2017-11-16T05:13:16.667Z,1014.91
2017-11-16T05:14:16.650Z,1014.92
2017-11-16T05:15:16.633Z,1014.88
2017-11-16T05:16:16.613Z,1014.91
2017-11-16T05:17:16.601Z,1014.91
2017-11-16T05:18:16.578Z,1014.92
2017-11-16T05:19:16.559Z,1014.91
2017-11-16T05:20:16.541Z,1014.94
2017-11-16T05:21:16.525Z,1014.94
2017-11-16T05:22:16.506Z,1015
2017-11-16T05:23:16.490Z,1015.02
2017-11-16T05:24:16.470Z,1015.03
2017-11-16T05:25:16.455Z,1015.03
2017-11-16T05:26:16.434Z,1015.06
2017-11-16T05:27:16.418Z,1015.06
2017-11-16T05:28:16.399Z,1015.05
2017-11-16T05:29:16.381Z,1015.08
2017-11-16T05:30:16.361Z,1015.1
2017-11-16T05:31:16.345Z,1015.13
2017-11-16T05:32:16.327Z,1015.12
2017-11-16T05:33:16.310Z,1015.11
2017-11-16T05:34:16.289Z,1015.13
2017-11-16T05:35:16.324Z,1015.15
2017-11-16T05:36:16.254Z,1015.13
2017-11-16T05:37:16.238Z,1015.11
2017-11-16T05:38:16.218Z,1015.13
2017-11-16T05:39:16.204Z,1015.12
2017-11-16T05:40:16.189Z,1015.13
2017-11-16T05:41:16.167Z,1015.11
2017-11-16T05:42:16.152Z,1015.18
2017-11-16T05:43:16.130Z,1015.13
2017-11-16T05:44:16.112Z,1015.14
2017-11-16T05:45:16.094Z,1015.21
2017-11-16T05:46:16.075Z,1015.18
2017-11-16T05:47:16.059Z,1015.21
2017-11-16T05:48:16.042Z,1015.19
2017-11-16T05:49:16.023Z,1015.19
2017-11-16T05:50:16.011Z,1015.19
2017-11-16T05:51:15.988Z,1015.17
2017-11-16T05:52:15.969Z,1015.14
2017-11-16T05:53:15.952Z,1015.15
2017-11-16T05:54:15.933Z,1015.12
2017-11-16T05:55:15.919Z,1015.2
2017-11-16T05:56:15.902Z,1015.16
2017-11-16T05:57:16.084Z,1015.14
2017-11-16T05:58:15.863Z,1015.14
2017-11-16T05:59:15.848Z,1015.11
2017-11-16T06:00:15.827Z,1015.09
2017-11-16T06:01:15.811Z,1015.05
2017-11-16T06:02:15.796Z,1015.09
2017-11-16T06:03:15.777Z,1015.07
2017-11-16T06:04:15.758Z,1015.07
2017-11-16T06:05:15.744Z,1015.07
2017-11-16T06:06:15.722Z,1015.1
2017-11-16T06:07:15.706Z,1015.11
2017-11-16T06:08:15.689Z,1015.1
2017-11-16T06:09:15.670Z,1015.06
2017-11-16T06:10:15.651Z,1015.06
2017-11-16T06:11:15.641Z,1015.02
2017-11-16T06:12:15.622Z,1015.03
2017-11-16T06:13:15.598Z,1015.02
2017-11-16T06:14:15.586Z,1015.03
2017-11-16T06:15:15.563Z,1014.98
2017-11-16T06:16:15.547Z,1014.97
2017-11-16T06:17:15.528Z,1014.97
2017-11-16T06:18:15.512Z,1015.02
2017-11-16T06:19:15.493Z,1014.97
2017-11-16T06:20:15.477Z,1015
2017-11-16T06:21:15.459Z,1014.99
2017-11-16T06:22:15.440Z,1015
2017-11-16T06:23:15.424Z,1014.99
2017-11-16T06:24:15.404Z,1015.01
2017-11-16T06:25:15.386Z,1014.99
2017-11-16T06:26:15.369Z,1014.97
2017-11-16T06:27:15.354Z,1014.99
2017-11-16T06:28:15.334Z,1015
2017-11-16T06:29:15.316Z,1015.01
2017-11-16T06:30:15.301Z,1015
2017-11-16T06:31:15.288Z,1015.01
2017-11-16T06:32:15.268Z,1015.02
2017-11-16T06:33:15.246Z,1015.06
2017-11-16T06:34:15.229Z,1015.03
2017-11-16T06:35:15.212Z,1015.05
2017-11-16T06:36:15.243Z,1015.08
2017-11-16T06:37:15.175Z,1015.13
2017-11-16T06:38:15.159Z,1015.14
2017-11-16T06:39:15.142Z,1015.15
2017-11-16T06:40:15.122Z,1015.16
2017-11-16T06:41:15.104Z,1015.13
2017-11-16T06:42:15.088Z,1015.16
2017-11-16T06:43:15.069Z,1015.13
2017-11-16T06:44:15.054Z,1015.13
2017-11-16T06:45:15.038Z,1015.12
2017-11-16T06:46:15.019Z,1015.09
2017-11-16T06:47:14.999Z,1015.11
2017-11-16T06:48:14.982Z,1015.1
2017-11-16T06:49:14.966Z,1015.09
2017-11-16T06:50:14.945Z,1015.03
2017-11-16T06:51:14.928Z,1015.03
2017-11-16T06:52:14.910Z,1015.04
2017-11-16T06:53:14.892Z,1015.09
2017-11-16T06:54:14.875Z,1015.1
2017-11-16T06:55:14.858Z,1015.16
2017-11-16T06:56:14.841Z,1015.12
2017-11-16T06:57:14.822Z,1015.15
2017-11-16T06:58:14.814Z,1015.16
2017-11-16T06:59:14.792Z,1015.21
2017-11-16T07:00:14.770Z,1015.22
2017-11-16T07:01:14.752Z,1015.23
2017-11-16T07:02:14.734Z,1015.29
2017-11-16T07:03:14.717Z,1015.26
2017-11-16T07:04:14.699Z,1015.27
2017-11-16T07:05:14.680Z,1015.25
2017-11-16T07:06:14.662Z,1015.24
2017-11-16T07:07:14.646Z,1015.23
2017-11-16T07:08:14.627Z,1015.22
2017-11-16T07:09:14.617Z,1015.22
2017-11-16T07:10:14.593Z,1015.21
2017-11-16T07:11:14.576Z,1015.21
2017-11-16T07:12:14.558Z,1015.24
2017-11-16T07:13:14.538Z,1015.24
2017-11-16T07:14:14.519Z,1015.23
2017-11-16T07:15:14.503Z,1015.22
2017-11-16T07:16:14.487Z,1015.24
2017-11-16T07:17:14.468Z,1015.22
2017-11-16T07:18:14.453Z,1015.18
2017-11-16T07:19:14.432Z,1015.18
2017-11-16T07:20:14.427Z,1015.15
2017-11-16T07:21:14.398Z,1015.16
2017-11-16T07:22:14.379Z,1015.11
2017-11-16T07:23:14.362Z,1015.12
2017-11-16T07:24:14.343Z,1015.15
2017-11-16T07:25:14.325Z,1015.14
2017-11-16T07:26:14.308Z,1015.1
2017-11-16T07:27:14.292Z,1015.07
2017-11-16T07:28:14.273Z,1015.05
2017-11-16T07:29:14.258Z,1015.03
2017-11-16T07:30:14.238Z,1015.01
2017-11-16T07:31:14.220Z,1015.03
2017-11-16T07:32:14.201Z,1015.04
2017-11-16T07:33:14.184Z,1015.05
2017-11-16T07:34:14.167Z,1015.08
2017-11-16T07:35:14.148Z,1015.04
2017-11-16T07:36:14.133Z,1015.09
2017-11-16T07:37:14.116Z,1015.11
2017-11-16T07:38:14.097Z,1015.1
2017-11-16T07:39:14.080Z,1015.15
2017-11-16T07:40:14.061Z,1015.15
2017-11-16T07:41:14.044Z,1015.16
2017-11-16T07:42:14.026Z,1015.2
2017-11-16T07:43:14.008Z,1015.22
2017-11-16T07:44:13.995Z,1015.23
2017-11-16T07:45:13.973Z,1015.26
2017-11-16T07:46:13.954Z,1015.28
2017-11-16T07:47:13.938Z,1015.32
2017-11-16T07:48:13.920Z,1015.32
2017-11-16T07:49:13.901Z,1015.33
2017-11-16T07:50:13.884Z,1015.35
2017-11-16T07:51:13.869Z,1015.33
2017-11-16T07:52:13.849Z,1015.3
2017-11-16T07:53:13.832Z,1015.36
2017-11-16T07:54:13.813Z,1015.34
2017-11-16T07:55:13.800Z,1015.35
2017-11-16T07:56:13.779Z,1015.42
2017-11-16T07:57:13.964Z,1015.41
2017-11-16T07:58:13.742Z,1015.41
2017-11-16T07:59:13.724Z,1015.47
2017-11-16T08:00:13.708Z,1015.45
2017-11-16T08:01:13.690Z,1015.49
2017-11-16T08:02:13.673Z,1015.48
2017-11-16T08:03:13.654Z,1015.45
2017-11-16T08:04:13.637Z,1015.46
2017-11-16T08:05:13.620Z,1015.44
2017-11-16T08:06:13.604Z,1015.43
2017-11-16T08:07:13.586Z,1015.41
2017-11-16T08:08:13.569Z,1015.41
2017-11-16T08:09:13.551Z,1015.41
2017-11-16T08:10:13.534Z,1015.44
2017-11-16T08:11:13.514Z,1015.36
2017-11-16T08:12:13.499Z,1015.44
2017-11-16T08:13:13.480Z,1015.41
2017-11-16T08:14:13.461Z,1015.44
2017-11-16T08:15:13.442Z,1015.43
2017-11-16T08:16:13.432Z,1015.48
2017-11-16T08:17:13.407Z,1015.5
2017-11-16T08:18:13.391Z,1015.51
2017-11-16T08:19:13.371Z,1015.52
2017-11-16T08:20:13.355Z,1015.55
2017-11-16T08:21:13.342Z,1015.58
2017-11-16T08:22:13.320Z,1015.56
2017-11-16T08:23:13.302Z,1015.6
2017-11-16T08:24:13.284Z,1015.65
2017-11-16T08:25:13.266Z,1015.62
2017-11-16T08:26:13.250Z,1015.62
2017-11-16T08:27:13.232Z,1015.63
2017-11-16T08:28:13.215Z,1015.67
2017-11-16T08:29:13.194Z,1015.62
2017-11-16T08:30:13.177Z,1015.66
2017-11-16T08:31:13.160Z,1015.68
2017-11-16T08:32:13.143Z,1015.67
2017-11-16T08:33:13.124Z,1015.67
2017-11-16T08:34:13.106Z,1015.66
2017-11-16T08:35:13.090Z,1015.71
2017-11-16T08:36:13.073Z,1015.73
2017-11-16T08:37:13.053Z,1015.74
2017-11-16T08:38:13.036Z,1015.71
2017-11-16T08:39:13.019Z,1015.74
2017-11-16T08:40:13.001Z,1015.77
2017-11-16T08:41:12.984Z,1015.8
2017-11-16T08:42:12.972Z,1015.78
2017-11-16T08:43:12.947Z,1015.79
2017-11-16T08:44:12.934Z,1015.8
2017-11-16T08:45:12.913Z,1015.82
2017-11-16T08:46:12.896Z,1015.86
2017-11-16T08:47:12.877Z,1015.86
2017-11-16T08:48:12.859Z,1015.88
2017-11-16T08:49:12.840Z,1015.88
2017-11-16T08:50:12.827Z,1015.89
2017-11-16T08:51:12.807Z,1015.91
2017-11-16T08:52:12.789Z,1015.85
2017-11-16T08:53:12.770Z,1015.84
2017-11-16T08:54:12.752Z,1015.85
2017-11-16T08:55:12.736Z,1015.8
2017-11-16T08:56:12.719Z,1015.81
2017-11-16T08:57:12.702Z,1015.76
2017-11-16T08:58:12.685Z,1015.72
2017-11-16T08:59:12.664Z,1015.75
2017-11-16T09:00:12.649Z,1015.77
2017-11-16T09:01:12.633Z,1015.74
2017-11-16T09:02:12.613Z,1015.76
2017-11-16T09:03:12.595Z,1015.77
2017-11-16T09:04:12.578Z,1015.79
2017-11-16T09:05:12.565Z,1015.75
2017-11-16T09:06:12.548Z,1015.73
2017-11-16T09:07:12.527Z,1015.76
2017-11-16T09:08:12.508Z,1015.74
2017-11-16T09:09:12.490Z,1015.77
2017-11-16T09:10:12.473Z,1015.78
2017-11-16T09:11:12.459Z,1015.81
2017-11-16T09:12:12.438Z,1015.82
2017-11-16T09:13:12.419Z,1015.79
2017-11-16T09:14:12.402Z,1015.8
2017-11-16T09:15:12.385Z,1015.79
2017-11-16T09:16:12.368Z,1015.79
2017-11-16T09:17:12.347Z,1015.81
2017-11-16T09:18:12.333Z,1015.83
2017-11-16T09:19:12.314Z,1015.81
2017-11-16T09:20:12.297Z,1015.83
2017-11-16T09:21:12.279Z,1015.84
2017-11-16T09:22:12.261Z,1015.81
2017-11-16T09:23:12.245Z,1015.79
2017-11-16T09:24:12.227Z,1015.73
2017-11-16T09:25:12.208Z,1015.71
2017-11-16T09:26:12.192Z,1015.73
2017-11-16T09:27:12.174Z,1015.7
2017-11-16T09:28:12.156Z,1015.66
2017-11-16T09:29:12.138Z,1015.67
2017-11-16T09:30:12.121Z,1015.64
2017-11-16T09:31:12.106Z,1015.63
2017-11-16T09:32:12.086Z,1015.66
2017-11-16T09:33:12.072Z,1015.62
2017-11-16T09:34:12.052Z,1015.62
2017-11-16T09:35:12.035Z,1015.63
2017-11-16T09:36:12.021Z,1015.6
2017-11-16T09:37:11.999Z,1015.63
2017-11-16T09:38:11.983Z,1015.6
2017-11-16T09:39:11.964Z,1015.59
2017-11-16T09:40:11.957Z,1015.59
2017-11-16T09:41:11.934Z,1015.56
2017-11-16T09:42:11.913Z,1015.52
2017-11-16T09:43:11.896Z,1015.5
2017-11-16T09:44:11.932Z,1015.45
2017-11-16T09:45:11.862Z,1015.48
2017-11-16T09:46:11.846Z,1015.49
2017-11-16T09:47:11.826Z,1015.47
2017-11-16T09:48:11.809Z,1015.43
2017-11-16T09:49:11.792Z,1015.46
2017-11-16T09:50:11.775Z,1015.47
2017-11-16T09:51:11.764Z,1015.45
2017-11-16T09:52:11.740Z,1015.45
2017-11-16T09:53:11.723Z,1015.46
2017-11-16T09:54:11.710Z,1015.46
2017-11-16T09:55:11.691Z,1015.47
2017-11-16T09:56:11.672Z,1015.48
2017-11-16T09:57:11.653Z,1015.49
2017-11-16T09:58:11.637Z,1015.46
2017-11-16T09:59:11.623Z,1015.45
2017-11-16T10:00:11.602Z,1015.41
2017-11-16T10:01:11.589Z,1015.41
2017-11-16T10:02:11.567Z,1015.39
2017-11-16T10:03:11.553Z,1015.38
2017-11-16T10:04:11.532Z,1015.36
2017-11-16T10:05:11.518Z,1015.35
2017-11-16T10:06:11.500Z,1015.38
2017-11-16T10:07:11.483Z,1015.36
2017-11-16T10:08:11.466Z,1015.33
2017-11-16T10:09:11.484Z,1015.31
2017-11-16T10:10:11.436Z,1015.31
2017-11-16T10:11:11.422Z,1015.31
2017-11-16T10:12:11.397Z,1015.25
2017-11-16T10:13:11.382Z,1015.27
2017-11-16T10:14:11.367Z,1015.24
2017-11-16T10:15:11.353Z,1015.23
2017-11-16T10:16:11.329Z,1015.24
2017-11-16T10:17:11.312Z,1015.24
2017-11-16T10:18:11.298Z,1015.21
2017-11-16T10:19:11.280Z,1015.19
2017-11-16T10:20:11.260Z,1015.23
2017-11-16T10:21:11.244Z,1015.17
2017-11-16T10:22:11.228Z,1015.18
2017-11-16T10:23:11.209Z,1015.14
2017-11-16T10:24:11.193Z,1015.14
2017-11-16T10:25:11.182Z,1015.15
2017-11-16T10:26:11.164Z,1015.16
2017-11-16T10:27:11.143Z,1015.18
2017-11-16T10:28:11.127Z,1015.13
2017-11-16T10:29:11.110Z,1015.12
2017-11-16T10:30:11.299Z,1015.09
2017-11-16T10:31:11.080Z,1015.1
2017-11-16T10:32:11.061Z,1015.11
2017-11-16T10:33:11.046Z,1015.07
2017-11-16T10:34:11.029Z,1015.08
2017-11-16T10:35:11.017Z,1015.06
2017-11-16T10:36:10.995Z,1015.06
2017-11-16T10:37:10.980Z,1015.02
2017-11-16T10:38:10.962Z,1015.03
2017-11-16T10:39:10.947Z,1015.01
2017-11-16T10:40:10.983Z,1015.03
2017-11-16T10:41:10.915Z,1014.96
2017-11-16T10:42:10.897Z,1014.94
2017-11-16T10:43:10.884Z,1014.91
2017-11-16T10:44:10.878Z,1014.93
2017-11-16T10:45:10.850Z,1014.91
2017-11-16T10:46:10.834Z,1014.96
2017-11-16T10:47:10.827Z,1014.92
2017-11-16T10:48:10.800Z,1014.97
2017-11-16T10:49:10.785Z,1014.93
2017-11-16T10:50:10.767Z,1014.96
2017-11-16T10:51:10.752Z,1014.93
2017-11-16T10:52:10.735Z,1014.92
2017-11-16T10:53:10.720Z,1014.87
2017-11-16T10:54:10.702Z,1014.86
2017-11-16T10:55:10.737Z,1014.91
2017-11-16T10:56:10.674Z,1014.9
2017-11-16T10:57:10.655Z,1014.88
2017-11-16T10:58:10.638Z,1014.89
2017-11-16T10:59:10.621Z,1014.86
2017-11-16T11:00:10.610Z,1014.85
2017-11-16T11:01:10.591Z,1014.9
2017-11-16T11:02:10.574Z,1014.87
2017-11-16T11:03:10.558Z,1014.88
2017-11-16T11:04:10.543Z,1014.87
2017-11-16T11:05:10.529Z,1014.89
2017-11-16T11:06:10.509Z,1014.84
2017-11-16T11:07:10.497Z,1014.84
2017-11-16T11:08:10.480Z,1014.79
2017-11-16T11:09:10.460Z,1014.8
2017-11-16T11:10:10.446Z,1014.85
2017-11-16T11:11:10.428Z,1014.81
2017-11-16T11:12:10.414Z,1014.8
2017-11-16T11:13:10.398Z,1014.8
2017-11-16T11:14:10.395Z,1014.81
2017-11-16T11:15:10.364Z,1014.83
2017-11-16T11:16:10.349Z,1014.8
2017-11-16T11:17:10.336Z,1014.86
2017-11-16T11:18:10.315Z,1014.85
2017-11-16T11:19:10.299Z,1014.87
2017-11-16T11:20:10.315Z,1014.85
2017-11-16T11:21:10.271Z,1014.88
2017-11-16T11:22:10.255Z,1014.84
2017-11-16T11:23:10.234Z,1014.84
2017-11-16T11:24:10.219Z,1014.87
2017-11-16T11:25:10.201Z,1014.84
2017-11-16T11:26:10.187Z,1014.82
2017-11-16T11:27:10.168Z,1014.84
2017-11-16T11:28:10.154Z,1014.86
2017-11-16T11:29:10.136Z,1014.85
2017-11-16T11:30:10.127Z,1014.85
2017-11-16T11:31:10.106Z,1014.93
2017-11-16T11:32:10.087Z,1014.87
2017-11-16T11:33:10.073Z,1014.89
2017-11-16T11:34:10.055Z,1014.91
2017-11-16T11:35:10.041Z,1014.85
2017-11-16T11:36:10.026Z,1014.9
2017-11-16T11:37:10.005Z,1014.91
2017-11-16T11:38:09.989Z,1014.86
2017-11-16T11:39:09.971Z,1014.88
2017-11-16T11:40:09.956Z,1014.92
2017-11-16T11:41:09.990Z,1014.88
2017-11-16T11:42:09.926Z,1014.92
2017-11-16T11:43:09.905Z,1014.89
2017-11-16T11:44:09.890Z,1014.91
2017-11-16T11:45:09.872Z,1014.96
2017-11-16T11:46:09.857Z,1014.93
2017-11-16T11:47:09.839Z,1014.91
2017-11-16T11:48:09.824Z,1014.9
2017-11-16T11:49:09.821Z,1014.93
2017-11-16T11:50:09.791Z,1014.91
2017-11-16T11:51:09.825Z,1014.9
2017-11-16T11:52:09.765Z,1014.89
2017-11-16T11:53:09.741Z,1014.85
2017-11-16T11:54:09.724Z,1014.89
2017-11-16T11:55:09.709Z,1014.86
2017-11-16T11:56:09.691Z,1014.85
2017-11-16T11:57:09.676Z,1014.9
2017-11-16T11:58:09.860Z,1014.87
2017-11-16T11:59:09.642Z,1014.91
2017-11-16T12:00:09.626Z,1014.87
2017-11-16T12:01:09.611Z,1014.89
2017-11-16T12:02:09.592Z,1014.88
2017-11-16T12:03:09.577Z,1014.85
2017-11-16T12:04:09.560Z,1014.9
2017-11-16T12:05:09.543Z,1014.89
2017-11-16T12:06:09.528Z,1014.85
2017-11-16T12:07:09.512Z,1014.9